Time;durP1;ratioP1;P1;durP2;ratioP2;P2;SDS_P1;SDS_P2;PMS_P1;PMS_P2;Temp;Humidity;BMP_temperature;BMP_pressure;BME280_temperature;BME280_humidity;BME280_pressure;Samples;Min_cycle;Max_cycle;Signal;HPM_P1;HPM_P2
2020/12/16 00:00:11;;;;;;;101.78;40.45;;;;;;;3.40;90.80;100014.52;1748778;82;21153;-65
2020/12/16 00:02:41;;;;;;;93.90;37.78;;;;;;;3.37;90.81;100016.91;1746523;81;21134;-65
2020/12/16 00:05:10;;;;;;;100.95;44.08;;;;;;;3.35;90.73;100013.80;1739217;82;21158;-65
2020/12/16 00:07:39;;;;;;;102.32;43.52;;;;;;;3.37;90.84;100019.87;1739366;82;21166;-66
2020/12/16 00:10:11;;;;;;;93.12;43.33;;;;;;;3.38;90.74;100018.66;1739208;82;21301;-65
2020/12/16 00:12:40;;;;;;;94.55;41.13;;;;;;;3.38;90.68;100016.51;1739389;82;21143;-65
2020/12/16 00:15:10;;;;;;;98.00;41.18;;;;;;;3.37;90.71;100014.77;1739474;82;21544;-64
2020/12/16 00:17:39;;;;;;;112.35;44.98;;;;;;;3.37;90.66;100018.59;1739390;82;21556;-64
2020/12/16 00:20:08;;;;;;;107.90;45.12;;;;;;;3.24;90.68;100017.89;1739178;82;21295;-65
2020/12/16 00:22:41;;;;;;;106.15;41.75;;;;;;;3.12;90.85;100015.91;1739456;82;21521;-65
2020/12/16 00:25:10;;;;;;;102.15;41.48;;;;;;;2.98;91.27;100016.80;1739154;82;21382;-66
2020/12/16 00:27:40;;;;;;;109.25;43.02;;;;;;;2.99;91.94;100014.33;1739060;82;21158;-65
2020/12/16 00:30:08;;;;;;;110.92;44.67;;;;;;;3.03;92.14;100014.13;1739190;82;21134;-65
2020/12/16 00:32:38;;;;;;;105.90;45.58;;;;;;;2.99;92.02;100014.73;1739172;82;21147;-64
2020/12/16 00:35:09;;;;;;;116.97;46.60;;;;;;;2.95;92.26;100011.50;1739200;82;21158;-65
2020/12/16 00:37:42;;;;;;;117.55;47.03;;;;;;;2.95;92.50;100016.60;1739260;82;21158;-65
2020/12/16 00:40:13;;;;;;;118.25;44.70;;;;;;;2.88;92.34;100020.89;1739385;82;21157;-65
2020/12/16 00:42:47;;;;;;;118.05;47.75;;;;;;;2.77;92.27;100010.94;1739324;82;21222;-65
2020/12/16 00:45:15;;;;;;;146.18;54.95;;;;;;;2.67;92.55;100016.28;1739179;82;21572;-65
2020/12/16 00:47:44;;;;;;;112.77;49.48;;;;;;;2.58;92.81;100017.88;1739144;82;21150;-66
2020/12/16 00:50:12;;;;;;;128.65;53.98;;;;;;;2.49;92.90;100012.63;1739740;82;21225;-64
2020/12/16 00:52:42;;;;;;;152.87;60.50;;;;;;;2.27;93.11;100015.16;1737808;82;21459;-66
2020/12/16 00:55:11;;;;;;;144.10;55.58;;;;;;;2.10;93.66;100019.62;1739730;82;21142;-67
2020/12/16 00:57:39;;;;;;;131.47;57.43;;;;;;;1.94;94.00;100012.31;1739327;82;21268;-66
2020/12/16 01:00:09;;;;;;;137.65;59.33;;;;;;;1.87;94.63;100017.80;1739574;82;21603;-66
2020/12/16 01:02:42;;;;;;;148.35;59.00;;;;;;;1.89;94.98;100011.14;1740324;82;21580;-64
2020/12/16 01:05:16;;;;;;;138.68;57.38;;;;;;;1.94;95.08;100002.52;1748994;82;21146;-65
2020/12/16 01:07:46;;;;;;;143.97;55.12;;;;;;;1.95;95.04;100002.59;1748950;81;21150;-65
2020/12/16 01:10:18;;;;;;;145.07;57.10;;;;;;;1.83;95.08;99998.05;1749072;82;21666;-65
2020/12/16 01:12:48;;;;;;;128.78;54.08;;;;;;;1.74;95.44;100002.55;1748964;82;21157;-64
2020/12/16 01:15:20;;;;;;;135.68;55.58;;;;;;;1.77;95.82;99992.56;1749287;81;21568;-65
2020/12/16 01:17:50;;;;;;;133.97;55.30;;;;;;;1.82;95.94;99992.85;1748646;82;21122;-64
2020/12/16 01:20:20;;;;;;;133.15;52.53;;;;;;;1.85;96.00;99993.03;1748013;82;21146;-65
2020/12/16 01:22:49;;;;;;;135.28;52.15;;;;;;;1.84;96.03;99987.07;1749179;82;21528;-64
2020/12/16 01:25:22;;;;;;;114.03;48.40;;;;;;;1.81;95.94;99993.65;1748790;82;21169;-65
2020/12/16 01:27:53;;;;;;;110.60;46.90;;;;;;;1.72;96.00;99991.39;1729943;82;21150;-64
2020/12/16 01:30:22;;;;;;;97.22;44.50;;;;;;;1.66;96.32;99983.39;1749010;81;21161;-65
2020/12/16 01:32:54;;;;;;;107.67;48.73;;;;;;;1.60;96.57;99984.26;1748832;81;21154;-65
2020/12/16 01:35:26;;;;;;;124.87;51.70;;;;;;;1.55;96.69;99986.91;1749097;81;21157;-64
2020/12/16 01:37:54;;;;;;;146.72;57.65;;;;;;;1.52;96.90;99982.50;1748964;82;21150;-64
2020/12/16 01:40:24;;;;;;;132.20;54.13;;;;;;;1.48;97.04;99980.17;1749006;81;21157;-66
2020/12/16 01:42:52;;;;;;;120.85;54.00;;;;;;;1.45;97.23;99975.27;1748845;82;21154;-65
2020/12/16 01:45:25;;;;;;;123.40;55.33;;;;;;;1.49;97.47;99974.69;1748748;81;21153;-65
2020/12/16 01:47:54;;;;;;;114.37;52.45;;;;;;;1.57;97.51;99971.35;1749024;81;21169;-66
2020/12/16 01:50:26;;;;;;;92.37;44.50;;;;;;;1.64;97.47;99970.56;1748756;82;21158;-65
2020/12/16 01:52:57;;;;;;;108.72;47.38;;;;;;;1.65;97.35;99970.16;1730076;82;21150;-65
2020/12/16 01:55:29;;;;;;;99.05;45.20;;;;;;;1.65;97.13;99967.61;1747258;82;21275;-64
2020/12/16 01:58:04;;;;;;;93.17;43.05;;;;;;;1.66;97.12;99966.85;1748315;82;21138;-65
2020/12/16 02:00:33;;;;;;;87.53;41.08;;;;;;;1.69;97.10;99970.85;1748953;81;21296;-65
2020/12/16 02:03:04;;;;;;;100.90;44.80;;;;;;;1.67;96.88;99964.78;1748953;82;21687;-65
2020/12/16 02:05:53;;;;;;;99.42;41.37;;;;;;;1.66;96.93;99961.77;1748850;82;21216;-66
2020/12/16 02:08:26;;;;;;;100.60;44.42;;;;;;;1.64;96.97;99958.23;1748876;81;21580;-64
2020/12/16 02:10:55;;;;;;;90.70;44.03;;;;;;;1.61;96.95;99952.97;1749044;81;21138;-65
2020/12/16 02:13:24;;;;;;;90.80;41.58;;;;;;;1.55;97.00;99956.37;1729770;82;21173;-65
2020/12/16 02:15:54;;;;;;;99.50;45.55;;;;;;;1.48;97.03;99958.95;1748721;82;21126;-65
2020/12/16 02:18:23;;;;;;;111.32;47.17;;;;;;;1.41;97.33;99956.40;1748769;81;21287;-64
2020/12/16 02:20:55;;;;;;;103.15;45.78;;;;;;;1.36;97.56;99951.41;1748540;81;21122;-64
2020/12/16 02:23:26;;;;;;;99.13;47.48;;;;;;;1.37;97.81;99951.89;1748894;81;21245;-64
2020/12/16 02:25:56;;;;;;;94.72;44.42;;;;;;;1.36;97.87;99950.14;1748861;82;21272;-66
2020/12/16 02:28:24;;;;;;;103.55;45.15;;;;;;;1.37;97.87;99953.56;1749011;81;21150;-66
2020/12/16 02:30:52;;;;;;;99.35;44.65;;;;;;;1.34;97.90;99952.98;1749047;82;21268;-65
2020/12/16 02:33:28;;;;;;;111.50;46.92;;;;;;;1.36;98.03;99949.27;1746673;82;21185;-66
2020/12/16 02:36:00;;;;;;;97.82;43.45;;;;;;;1.36;97.98;99955.23;1747779;81;21126;-64
2020/12/16 02:38:49;;;;;;;93.55;42.00;;;;;;;1.35;98.09;99952.21;1720859;83;21564;-66
2020/12/16 02:41:19;;;;;;;86.90;39.00;;;;;;;1.31;97.98;99956.59;1720621;83;21580;-68
2020/12/16 02:43:47;;;;;;;79.92;36.17;;;;;;;1.25;98.05;99953.69;1720584;83;21179;-67
2020/12/16 02:46:15;;;;;;;76.95;38.98;;;;;;;1.22;98.29;99957.27;1720691;83;21155;-66
2020/12/16 02:48:43;;;;;;;77.97;36.75;;;;;;;1.20;98.37;99952.52;1720558;83;21119;-65
2020/12/16 02:51:11;;;;;;;83.00;39.10;;;;;;;1.20;98.40;99956.33;1720588;83;21291;-67
2020/12/16 02:53:40;;;;;;;74.45;35.03;;;;;;;1.16;98.55;99962.85;1720679;83;21130;-67
2020/12/16 02:56:15;;;;;;;74.17;34.73;;;;;;;1.14;98.55;99955.52;1705431;83;21351;-66
2020/12/16 02:58:47;;;;;;;77.67;34.80;;;;;;;1.13;98.75;99952.89;1719758;83;21150;-66
2020/12/16 03:01:16;;;;;;;72.50;35.28;;;;;;;1.13;98.82;99946.53;1720786;83;21336;-66
2020/12/16 03:03:52;;;;;;;86.53;39.58;;;;;;;1.16;98.84;99949.27;1677892;83;21719;-67
2020/12/16 03:06:37;;;;;;;78.02;35.65;;;;;;;1.16;98.91;99945.45;1720378;83;21154;-66
2020/12/16 03:09:07;;;;;;;78.97;34.50;;;;;;;1.19;99.04;99945.64;1720083;83;21559;-66
2020/12/16 03:11:36;;;;;;;75.08;37.15;;;;;;;1.21;98.93;99950.44;1720583;83;21193;-67
2020/12/16 03:14:05;;;;;;;75.55;36.75;;;;;;;1.20;98.90;99953.78;1720780;83;21312;-65
2020/12/16 03:16:34;;;;;;;85.55;39.88;;;;;;;1.22;98.99;99953.46;1720679;83;21304;-65
2020/12/16 03:19:04;;;;;;;70.55;36.60;;;;;;;1.25;98.97;99949.87;1719633;83;21587;-66
2020/12/16 03:21:33;;;;;;;79.50;38.83;;;;;;;1.25;98.84;99952.02;1720579;83;21307;-65
2020/12/16 03:24:12;;;;;;;69.15;34.85;;;;;;;1.30;98.96;99951.04;1834862;77;22253;-66
2020/12/16 03:26:57;;;;;;;68.87;34.27;;;;;;;1.28;98.84;99950.05;1727607;83;21268;-66
2020/12/16 03:29:29;;;;;;;68.15;35.48;;;;;;;1.27;98.65;99949.55;1742868;82;21546;-67
2020/12/16 03:31:59;;;;;;;72.35;34.25;;;;;;;1.24;98.65;99949.36;1725794;81;21591;-66
2020/12/16 03:34:28;;;;;;;71.35;35.68;;;;;;;1.23;98.76;99957.39;1741519;82;21621;-65
2020/12/16 03:36:58;;;;;;;75.45;34.95;;;;;;;1.22;98.76;99949.64;1727589;83;21113;-67
2020/12/16 03:39:26;;;;;;;73.20;35.65;;;;;;;1.23;98.75;99948.88;1744877;82;21308;-65
2020/12/16 03:41:54;;;;;;;70.10;34.00;;;;;;;1.23;98.70;99952.70;1728951;82;21165;-66
2020/12/16 03:44:22;;;;;;;74.53;35.03;;;;;;;1.25;98.74;99948.59;1744626;82;21707;-65
2020/12/16 03:46:54;;;;;;;60.70;32.70;;;;;;;1.26;98.66;99957.97;1729139;82;21161;-65
2020/12/16 03:49:24;;;;;;;61.90;32.67;;;;;;;1.29;98.60;99960.30;1744633;82;21190;-66
2020/12/16 03:51:55;;;;;;;61.68;30.55;;;;;;;1.30;98.60;99957.40;1728676;83;21173;-66
2020/12/16 03:54:27;;;;;;;74.67;33.85;;;;;;;1.27;98.43;99961.90;1741601;82;21155;-66
2020/12/16 03:57:09;;;;;;;60.17;29.32;;;;;;;1.30;98.41;99965.03;1724821;83;21154;-67
2020/12/16 03:59:42;;;;;;;58.95;30.25;;;;;;;1.33;98.25;99965.61;1743120;82;21143;-67
2020/12/16 04:02:12;;;;;;;65.78;33.78;;;;;;;1.32;98.13;99958.34;1717737;83;21540;-66
2020/12/16 04:04:42;;;;;;;59.20;33.05;;;;;;;1.34;98.09;99961.88;1743303;82;21605;-65
2020/12/16 04:07:10;;;;;;;65.45;33.18;;;;;;;1.40;98.29;99961.38;1728710;83;21169;-67
2020/12/16 04:09:40;;;;;;;59.53;29.02;;;;;;;1.50;98.19;99967.17;1743670;82;21284;-64
2020/12/16 04:12:08;;;;;;;57.90;27.98;;;;;;;1.53;97.55;99966.48;1729004;82;21141;-67
2020/12/16 04:14:37;;;;;;;57.90;28.12;;;;;;;1.44;97.11;99957.86;1744702;82;21300;-66
2020/12/16 04:17:07;;;;;;;52.33;26.65;;;;;;;1.35;97.18;99957.30;1728762;83;21145;-65
2020/12/16 04:19:38;;;;;;;55.88;27.52;;;;;;;1.32;97.23;99954.53;1741416;82;21131;-65
2020/12/16 04:22:06;;;;;;;54.63;28.55;;;;;;;1.35;97.36;99961.11;1728957;83;21181;-65
2020/12/16 04:24:36;;;;;;;52.05;27.13;;;;;;;1.34;96.89;99955.91;1744625;82;21175;-66
2020/12/16 04:27:06;;;;;;;54.80;25.88;;;;;;;1.30;96.94;99965.03;1727431;82;21730;-67
2020/12/16 04:29:38;;;;;;;49.70;26.55;;;;;;;1.31;96.99;99974.41;1744633;81;21127;-66
2020/12/16 04:32:07;;;;;;;53.52;28.23;;;;;;;1.30;96.98;99963.36;1728934;83;21125;-66
2020/12/16 04:34:37;;;;;;;55.43;29.35;;;;;;;1.31;97.12;99968.05;1743744;82;21703;-67
2020/12/16 04:37:05;;;;;;;54.60;29.02;;;;;;;1.28;96.85;99975.48;1728353;83;21161;-66
2020/12/16 04:39:34;;;;;;;54.33;26.93;;;;;;;1.21;96.82;99969.52;1744444;82;21605;-66
2020/12/16 04:42:03;;;;;;;48.75;25.30;;;;;;;1.13;97.00;99971.96;1728169;83;21161;-67
2020/12/16 04:44:35;;;;;;;51.18;27.90;;;;;;;1.10;97.20;99971.37;1744372;82;21187;-67
2020/12/16 04:47:05;;;;;;;53.08;27.93;;;;;;;1.06;97.36;99980.44;1700682;83;21149;-65
2020/12/16 04:49:36;;;;;;;52.65;27.55;;;;;;;1.04;97.42;99976.04;1743422;81;21680;-66
2020/12/16 04:52:05;;;;;;;55.45;27.35;;;;;;;1.01;97.43;99979.27;1728220;82;21188;-66
2020/12/16 04:54:45;;;;;;;50.92;27.95;;;;;;;0.99;97.67;99986.30;1742368;82;21363;-64
2020/12/16 04:57:14;;;;;;;49.00;26.48;;;;;;;0.97;97.74;99983.67;1700426;83;21157;-67
2020/12/16 04:59:43;;;;;;;49.85;27.35;;;;;;;0.98;97.75;99986.70;1744330;82;21676;-65
2020/12/16 05:02:15;;;;;;;47.53;25.10;;;;;;;1.07;97.75;99994.93;1727305;82;21582;-66
2020/12/16 05:05:03;;;;;;;49.83;25.97;;;;;;;1.07;97.75;99994.93;1741284;82;21305;-67
2020/12/16 05:07:31;;;;;;;46.48;24.67;;;;;;;1.11;97.62;99995.13;1728246;83;21157;-65
2020/12/16 05:09:59;;;;;;;51.30;26.35;;;;;;;1.08;97.52;99991.99;1744189;81;21720;-65
2020/12/16 05:12:27;;;;;;;50.58;27.35;;;;;;;1.10;97.44;99994.64;1728106;82;21157;-67
2020/12/16 05:14:55;;;;;;;46.15;23.57;;;;;;;1.04;97.24;99985.84;1744139;82;21170;-66
2020/12/16 05:17:22;;;;;;;39.05;19.57;;;;;;;0.98;97.26;99980.73;1728294;82;21161;-67
2020/12/16 05:19:58;;;;;;;37.05;21.97;;;;;;;0.92;97.03;99979.95;1742438;81;21163;-67
2020/12/16 05:22:28;;;;;;;44.55;22.93;;;;;;;0.90;96.96;99973.88;1728088;82;21295;-66
2020/12/16 05:24:59;;;;;;;43.90;23.50;;;;;;;0.93;97.31;99977.89;1744223;82;21127;-66
2020/12/16 05:27:30;;;;;;;46.92;24.63;;;;;;;0.99;97.27;99969.41;1728275;82;21153;-65
2020/12/16 05:30:05;;;;;;;44.50;22.52;;;;;;;1.00;97.10;99961.39;1744205;82;21167;-67
2020/12/16 05:32:36;;;;;;;37.25;19.77;;;;;;;0.96;97.03;99964.11;1728434;82;21513;-65
2020/12/16 05:35:29;;;;;;;39.18;20.20;;;;;;;0.93;97.06;99961.77;1744190;81;21602;-65
2020/12/16 05:38:09;;;;;;;44.18;24.55;;;;;;;0.95;97.01;99969.98;1728363;83;21580;-66
2020/12/16 05:40:40;;;;;;;43.63;23.65;;;;;;;0.98;96.84;99968.03;1742513;82;21313;-66
2020/12/16 05:43:08;;;;;;;40.20;20.70;;;;;;;0.99;96.72;99971.05;1728488;82;21158;-65
2020/12/16 05:45:40;;;;;;;40.67;22.10;;;;;;;0.98;96.89;99970.17;1744010;82;21166;-66
2020/12/16 05:48:11;;;;;;;39.05;21.50;;;;;;;0.96;96.84;99973.00;1728266;83;21678;-65
2020/12/16 05:50:53;;;;;;;37.80;21.45;;;;;;;0.93;96.74;99975.34;1744158;82;21162;-66
2020/12/16 05:53:25;;;;;;;37.10;19.67;;;;;;;0.88;96.39;99967.81;1728143;83;21279;-66
2020/12/16 05:56:00;;;;;;;37.00;21.12;;;;;;;0.87;96.47;99969.87;1744316;82;21146;-66
2020/12/16 05:58:31;;;;;;;39.70;21.65;;;;;;;0.94;96.60;99970.77;1728068;83;21327;-66
2020/12/16 06:01:05;;;;;;;37.15;20.40;;;;;;;1.04;96.10;99966.78;1721957;82;21257;-66
2020/12/16 06:03:39;;;;;;;34.00;18.23;;;;;;;1.10;95.92;99975.58;1727763;82;21350;-66
2020/12/16 06:06:09;;;;;;;38.13;19.73;;;;;;;1.01;95.27;99981.80;1721621;83;21142;-67
2020/12/16 06:08:43;;;;;;;35.52;19.12;;;;;;;0.95;95.53;99973.80;1727033;82;21119;-65
2020/12/16 06:11:12;;;;;;;37.60;19.45;;;;;;;0.98;95.91;99980.73;1726079;82;21143;-68
2020/12/16 06:13:46;;;;;;;33.33;17.60;;;;;;;1.07;95.78;99984.77;1718068;83;21172;-67
2020/12/16 06:16:14;;;;;;;33.30;18.67;;;;;;;1.24;95.47;99985.83;1715173;84;21335;-65
2020/12/16 06:18:47;;;;;;;37.58;18.85;;;;;;;1.26;94.48;99980.86;1715236;84;21180;-67
2020/12/16 06:21:15;;;;;;;33.00;18.92;;;;;;;1.29;94.12;99983.59;1715277;84;21193;-66
2020/12/16 06:23:44;;;;;;;35.88;19.95;;;;;;;1.34;94.30;99986.03;1707909;84;21324;-66
2020/12/16 06:26:20;;;;;;;31.90;17.37;;;;;;;1.42;93.98;99987.80;1748634;82;21281;-66
2020/12/16 06:28:47;;;;;;;36.58;20.37;;;;;;;1.49;93.93;99984.46;1749081;82;21155;-66
2020/12/16 06:31:31;;;;;;;32.40;16.95;;;;;;;1.49;93.10;99992.09;1748535;81;21374;-66
2020/12/16 06:34:09;;;;;;;30.77;17.57;;;;;;;1.48;93.20;100003.06;1748794;81;21597;-72
2020/12/16 06:36:43;;;;;;;21.50;13.25;;;;;;;1.44;92.79;99998.95;1738277;82;21281;-70
2020/12/16 06:39:22;;;;;;;28.38;17.55;;;;;;;1.51;92.17;99990.53;1748576;81;21147;-69
2020/12/16 06:41:59;;;;;;;18.20;10.82;;;;;;;1.55;91.94;100005.98;1748551;81;21359;-70
2020/12/16 06:44:27;;;;;;;17.15;10.18;;;;;;;1.55;90.62;99990.72;1748711;82;21744;-72
2020/12/16 06:46:57;;;;;;;16.70;8.70;;;;;;;1.50;89.98;100005.69;1748913;81;21140;-71
2020/12/16 06:49:34;;;;;;;21.27;11.85;;;;;;;1.56;89.52;100013.73;1763539;81;21119;-70
2020/12/16 06:52:09;;;;;;;17.62;10.72;;;;;;;1.63;89.43;100020.06;1762513;81;21219;-70
2020/12/16 06:54:41;;;;;;;24.35;14.05;;;;;;;1.69;89.22;100019.20;1762024;79;21254;-69
2020/12/16 06:57:22;;;;;;;25.75;13.72;;;;;;;1.69;89.16;100017.52;1762917;81;21123;-65
2020/12/16 06:59:56;;;;;;;;;;;;;;;1.60;88.51;100018.60;1780277;80;21115;-61
2020/12/16 07:02:28;;;;;;;22.87;13.03;;;;;;;1.50;88.54;100015.50;1779341;81;20138;-61
2020/12/16 07:04:59;;;;;;;20.12;12.35;;;;;;;1.57;88.81;100012.05;1778821;80;21360;-61
2020/12/16 07:07:57;;;;;;;24.07;13.50;;;;;;;1.60;88.40;100013.52;1779336;81;21139;-61
2020/12/16 07:10:40;;;;;;;20.02;12.28;;;;;;;1.56;88.69;100011.58;1694208;84;21193;-62
2020/12/16 07:13:32;;;;;;;21.80;11.78;;;;;;;1.62;88.38;100009.01;1770253;80;21132;-62
2020/12/16 07:16:12;;;;;;;15.50;8.18;;;;;;;1.67;88.06;100009.31;1751584;81;21150;-60
2020/12/16 07:18:51;;;;;;;16.30;9.55;;;;;;;1.67;86.71;99991.09;1751716;81;21149;-63
2020/12/16 07:21:22;;;;;;;15.10;8.83;;;;;;;1.65;86.83;100007.92;1751616;82;21126;-62
2020/12/16 07:24:07;;;;;;;17.52;10.10;;;;;;;1.62;85.83;100001.78;1751918;82;21154;-62
2020/12/16 07:27:03;;;;;;;16.15;9.53;;;;;;;1.54;86.62;99996.61;1704673;84;21162;-62
2020/12/16 07:29:37;;;;;;;13.55;9.03;;;;;;;1.50;86.72;100008.23;1663146;86;21152;-62
2020/12/16 07:32:16;;;;;;;16.50;10.20;;;;;;;1.34;86.47;100011.47;1663255;86;21152;-61
2020/12/16 07:34:54;;;;;;;14.55;8.75;;;;;;;1.28;87.47;100012.36;1662999;86;21175;-62
2020/12/16 07:37:31;;;;;;;12.63;7.75;;;;;;;1.33;87.34;99995.73;1663098;86;21583;-62
2020/12/16 07:40:05;;;;;;;15.68;9.18;;;;;;;1.39;86.38;100015.19;1663031;86;21196;-62
2020/12/16 07:42:34;;;;;;;14.68;8.83;;;;;;;1.37;86.46;100010.37;1663112;86;21255;-62
2020/12/16 07:45:08;;;;;;;15.65;9.48;;;;;;;1.45;86.60;100016.87;1663038;86;21735;-62
2020/12/16 07:47:37;;;;;;;18.70;10.15;;;;;;;1.48;86.28;100018.72;1663149;86;21182;-62
2020/12/16 07:50:11;;;;;;;14.78;9.48;;;;;;;1.53;86.29;100010.99;1663156;86;21183;-62
2020/12/16 07:52:39;;;;;;;15.58;9.43;;;;;;;1.60;85.82;100008.42;1663240;86;21341;-62
2020/12/16 07:55:07;;;;;;;14.98;9.05;;;;;;;1.60;85.35;100018.60;1663170;86;21192;-62
2020/12/16 07:57:36;;;;;;;14.33;9.18;;;;;;;1.65;85.69;100022.31;1663126;86;21180;-62
2020/12/16 08:00:05;;;;;;;17.65;10.95;;;;;;;1.72;85.23;100027.02;1662922;86;21314;-62
2020/12/16 08:02:44;;;;;;;18.45;11.70;;;;;;;1.70;85.34;100023.09;1663129;86;21196;-62
2020/12/16 08:05:14;;;;;;;20.12;11.15;;;;;;;1.77;85.28;100026.04;1663009;86;21168;-62
2020/12/16 08:07:42;;;;;;;20.23;12.58;;;;;;;1.81;84.82;100019.09;1663038;86;21168;-62
2020/12/16 08:10:11;;;;;;;19.48;12.53;;;;;;;1.77;85.20;100028.19;1663279;86;21155;-62
2020/12/16 08:12:42;;;;;;;21.70;13.68;;;;;;;1.85;85.45;100021.91;1663174;86;21306;-62
2020/12/16 08:15:17;;;;;;;18.37;12.45;;;;;;;1.97;85.30;100019.66;1663175;86;21341;-62
2020/12/16 08:17:49;;;;;;;19.75;11.00;;;;;;;2.05;84.62;100007.87;1663103;86;21207;-62
2020/12/16 08:20:19;;;;;;;;;;;;;;;1.95;83.80;100014.05;1665795;86;21199;-62
2020/12/16 08:22:50;;;;;;;20.65;10.70;;;;;;;1.82;85.00;100021.72;1663070;86;20136;-62
2020/12/16 08:25:22;;;;;;;16.70;9.98;;;;;;;1.82;85.46;100010.27;1663072;86;21345;-63
2020/12/16 08:27:54;;;;;;;13.75;9.55;;;;;;;1.91;84.62;100005.77;1660711;86;21195;-62
2020/12/16 08:30:24;;;;;;;15.60;9.70;;;;;;;1.99;84.41;100019.36;1654700;87;21635;-62
2020/12/16 08:33:15;;;;;;;18.85;11.25;;;;;;;2.06;84.25;100021.47;1654475;87;21168;-62
2020/12/16 08:35:55;;;;;;;19.37;11.78;;;;;;;2.06;83.77;100011.29;1654506;87;21171;-62
2020/12/16 08:41:14;;;;;;;18.20;11.33;;;;;;;2.10;84.05;100017.07;1843332;77;22164;-62
2020/12/16 08:43:43;;;;;;;19.92;11.22;;;;;;;2.02;83.97;100004.27;1729105;82;21154;-62
2020/12/16 08:46:20;;;;;;;15.75;8.93;;;;;;;1.95;84.18;100011.51;1748045;82;21170;-62
2020/12/16 08:49:03;;;;;;;16.90;10.50;;;;;;;1.95;83.99;100014.45;1728939;83;21284;-62
2020/12/16 08:51:37;;;;;;;14.50;8.63;;;;;;;2.02;84.47;100002.59;1748244;82;21162;-62
2020/12/16 08:54:24;;;;;;;14.40;9.25;;;;;;;2.08;83.75;100003.36;1729223;83;21555;-62
2020/12/16 08:56:56;;;;;;;12.65;8.50;;;;;;;2.00;84.29;100002.02;1746879;82;21194;-62
2020/12/16 08:59:30;;;;;;;13.70;8.13;;;;;;;1.90;83.99;100005.25;1729276;83;21223;-62
2020/12/16 09:02:08;;;;;;;16.30;9.40;;;;;;;1.78;84.38;99988.34;1748048;82;21178;-62
2020/12/16 09:04:40;;;;;;;14.68;9.00;;;;;;;1.80;84.94;100000.78;1728961;82;21134;-62
2020/12/16 09:07:17;;;;;;;16.67;9.50;;;;;;;1.94;84.78;99991.07;1748236;82;21158;-62
2020/12/16 09:09:50;;;;;;;14.80;9.68;;;;;;;2.03;84.04;99995.83;1728392;82;21139;-62
2020/12/16 09:12:21;;;;;;;14.95;9.33;;;;;;;1.95;84.15;100007.69;1748178;82;21150;-62
2020/12/16 09:15:03;;;;;;;14.43;7.83;;;;;;;1.87;84.30;100001.25;1729468;83;21173;-62
2020/12/16 09:17:32;;;;;;;15.03;10.00;;;;;;;1.87;84.70;99994.89;1748332;82;21316;-64
2020/12/16 09:20:00;;;;;;;16.17;10.05;;;;;;;1.95;84.62;99994.09;1729056;83;21212;-62
2020/12/16 09:22:30;;;;;;;16.40;10.08;;;;;;;2.03;84.32;99992.02;1748242;82;21296;-62
2020/12/16 09:25:00;;;;;;;15.58;9.23;;;;;;;2.03;84.35;100003.07;1728975;83;21133;-62
2020/12/16 09:27:28;;;;;;;13.05;8.40;;;;;;;1.89;84.43;99983.14;1728903;81;21161;-62
2020/12/16 09:29:56;;;;;;;16.12;9.75;;;;;;;1.89;84.76;100003.51;1728979;83;21280;-62
2020/12/16 09:32:27;;;;;;;14.98;9.70;;;;;;;1.92;84.84;100008.78;1728921;83;21147;-62
2020/12/16 09:34:55;;;;;;;14.33;8.78;;;;;;;1.95;84.87;100006.81;1729189;82;21660;-62
2020/12/16 09:37:34;;;;;;;16.27;10.18;;;;;;;1.86;84.65;99980.42;1729230;82;21157;-62
2020/12/16 09:40:08;;;;;;;14.80;9.55;;;;;;;1.78;85.13;100004.88;1745712;82;21178;-62
2020/12/16 09:42:38;;;;;;;15.75;9.98;;;;;;;1.73;85.54;99991.50;1731330;82;21295;-62
2020/12/16 09:45:15;;;;;;;20.30;12.82;;;;;;;1.83;85.47;99994.23;1742400;82;21173;-62
2020/12/16 09:47:45;;;;;;;18.23;11.28;;;;;;;1.99;85.35;99984.99;1731240;82;21153;-62
2020/12/16 09:50:13;;;;;;;20.40;11.68;;;;;;;2.03;84.99;99976.73;1742197;82;21324;-62
2020/12/16 09:52:41;;;;;;;21.42;11.12;;;;;;;2.01;85.12;99987.22;1730756;81;21152;-62
2020/12/16 09:55:20;;;;;;;17.85;10.82;;;;;;;1.99;85.48;99983.32;1741863;82;21202;-62
2020/12/16 09:58:06;;;;;;;18.62;11.43;;;;;;;1.97;85.38;99973.83;1730676;82;21169;-62
2020/12/16 10:00:36;;;;;;;20.90;12.37;;;;;;;1.80;85.91;99968.97;1741714;82;21171;-62
2020/12/16 10:03:07;;;;;;;24.20;13.65;;;;;;;1.83;85.97;99966.23;1730691;81;21288;-62
2020/12/16 10:05:36;;;;;;;27.50;16.85;;;;;;;1.91;85.93;99963.77;1742028;82;21573;-62
2020/12/16 10:08:06;;;;;;;27.75;14.58;;;;;;;2.01;85.96;99970.66;1730685;83;21296;-62
2020/12/16 10:10:34;;;;;;;25.92;16.05;;;;;;;1.99;85.83;99964.63;1741644;82;21187;-62
2020/12/16 10:13:02;;;;;;;23.38;14.55;;;;;;;1.90;86.16;99961.98;1730676;81;21277;-62
2020/12/16 10:15:30;;;;;;;22.13;13.50;;;;;;;1.90;86.17;99963.25;1741645;82;21696;-62
2020/12/16 10:17:58;;;;;;;17.87;11.35;;;;;;;1.91;85.93;99962.48;1730810;81;21151;-62
2020/12/16 10:20:27;;;;;;;24.55;13.95;;;;;;;1.90;85.58;99964.53;1741613;82;21325;-62
2020/12/16 10:22:54;;;;;;;25.80;14.90;;;;;;;1.87;85.60;99969.44;1730963;83;21145;-61
2020/12/16 10:25:22;;;;;;;27.62;17.07;;;;;;;1.91;85.83;99959.94;1741660;82;21195;-62
2020/12/16 10:27:50;;;;;;;30.95;19.30;;;;;;;1.99;85.82;99963.36;1730672;83;21275;-62
2020/12/16 10:30:17;;;;;;;35.58;20.08;;;;;;;2.03;85.82;99960.19;1741756;82;21151;-62
2020/12/16 10:32:45;;;;;;;33.88;19.15;;;;;;;2.05;85.88;99956.95;1730753;82;21279;-62
2020/12/16 10:35:12;;;;;;;34.25;19.62;;;;;;;2.06;85.76;99947.64;1741708;82;21317;-62
2020/12/16 10:37:40;;;;;;;31.00;18.23;;;;;;;2.09;85.88;99952.94;1730751;83;21149;-62
2020/12/16 10:40:09;;;;;;;29.52;18.00;;;;;;;2.15;85.54;99940.56;1743469;82;21628;-63
2020/12/16 10:42:37;;;;;;;28.12;18.45;;;;;;;2.17;85.33;99947.52;1728392;83;21153;-62
2020/12/16 10:45:06;;;;;;;32.23;17.65;;;;;;;2.19;85.16;99942.52;1747438;82;21277;-62
2020/12/16 10:47:33;;;;;;;34.45;18.85;;;;;;;2.19;85.10;99943.80;1728361;83;21157;-62
2020/12/16 10:50:03;;;;;;;33.28;19.32;;;;;;;2.20;85.10;99945.54;1747783;82;21154;-62
2020/12/16 10:52:31;;;;;;;31.48;18.85;;;;;;;2.22;85.02;99932.52;1728369;82;21319;-62
2020/12/16 10:54:58;;;;;;;27.90;15.15;;;;;;;2.24;84.91;99936.03;1747539;82;21290;-62
2020/12/16 10:57:26;;;;;;;28.95;16.27;;;;;;;2.11;84.73;99934.80;1728324;83;21153;-62
2020/12/16 10:59:55;;;;;;;25.92;16.40;;;;;;;1.85;85.39;99937.05;1747575;82;21267;-62
2020/12/16 11:02:23;;;;;;;28.95;18.12;;;;;;;1.76;86.02;99943.73;1728295;82;21178;-62
2020/12/16 11:04:51;;;;;;;31.00;18.48;;;;;;;1.76;86.22;99935.23;1747524;82;21149;-65
2020/12/16 11:07:18;;;;;;;35.13;20.35;;;;;;;1.78;86.42;99939.63;1728355;83;21145;-62
2020/12/16 11:09:46;;;;;;;33.83;21.12;;;;;;;1.86;86.45;99936.28;1747423;82;21145;-62
2020/12/16 11:12:14;;;;;;;37.85;23.35;;;;;;;1.87;86.48;99936.34;1728281;83;21303;-63
2020/12/16 11:14:41;;;;;;;31.45;19.73;;;;;;;1.88;86.55;99938.13;1747507;82;21316;-62
2020/12/16 11:17:09;;;;;;;35.13;19.80;;;;;;;1.94;86.60;99935.07;1728379;83;21165;-63
2020/12/16 11:19:37;;;;;;;33.35;20.40;;;;;;;2.02;86.58;99935.13;1747724;82;21562;-63
2020/12/16 11:22:05;;;;;;;36.48;20.08;;;;;;;2.01;86.33;99917.20;1728414;83;21154;-62
2020/12/16 11:24:33;;;;;;;32.85;20.05;;;;;;;1.83;86.56;99924.24;1747667;82;21199;-62
2020/12/16 11:27:01;;;;;;;29.35;18.25;;;;;;;1.69;87.28;99913.60;1728372;82;21349;-62
2020/12/16 11:29:28;;;;;;;27.90;16.45;;;;;;;1.71;87.38;99918.41;1747394;82;21277;-62
2020/12/16 11:31:58;;;;;;;27.62;16.77;;;;;;;1.66;87.27;99911.75;1728575;82;21174;-62
2020/12/16 11:34:27;;;;;;;31.75;18.65;;;;;;;1.60;87.73;99918.11;1747578;82;21305;-62
2020/12/16 11:36:58;;;;;;;31.68;19.70;;;;;;;1.63;87.83;99917.02;1728391;83;21156;-62
2020/12/16 11:39:27;;;;;;;27.20;19.73;;;;;;;1.65;87.95;99924.36;1747687;82;21708;-62
2020/12/16 11:41:56;;;;;;;33.33;20.62;;;;;;;1.63;87.99;99924.66;1728463;82;21730;-62
2020/12/16 11:44:26;;;;;;;31.30;20.68;;;;;;;1.68;88.08;99928.36;1747390;82;21174;-62